ADDS METAR Data INFO
IDs: Format: Raw Decoded Include TAF

Data at: 0152 UTC 17 Oct 2017

KAPA 170053Z 21006KT 10SM FEW110 FEW180 SCT220 14/M06 A3026 RMK AO2 SLP221 ACSL W-NW T01391056
KAPA 162353Z 00000KT 10SM FEW110 SCT180 BKN220 21/M12 A3024 RMK AO2 SLP206 ACSL W-NW T02111117 10233 20200 53000
KAPA 162253Z COR 00000KT 10SM FEW110 SCT180 BKN220 22/M13 A3024 RMK AO2 ACSL W-NW SLP206 T02221128
KAPA 162153Z 00000KT 10SM FEW110 BKN220 22/M10 A3024 RMK AO2 SLP200 T02221100
KAPA 162053Z 31005KT 10SM FEW110 BKN220 22/M14 A3024 RMK AO2 SLP203 T02221139 56022
KAPA 161953Z 32003KT 10SM FEW110 BKN220 22/M13 A3026 RMK AO2 SLP211 ACSL W T02171133
KAPA 161853Z 33006KT 10SM FEW110 BKN220 21/M12 A3029 RMK AO2 SLP228 T02111122
KAPA 161753Z 25007KT 10SM FEW110 BKN220 21/M14 A3032 RMK AO2 SLP237 T02061144 10206 20050 58008
KAPA 161653Z 24010KT 10SM FEW140 BKN220 19/M10 A3033 RMK AO2 SLP239 T01891100
KAPA 161553Z 24011KT 10SM BKN140 BKN220 17/M11 A3034 RMK AO2 SLP247 T01721111
KAPA 161453Z 00000KT 10SM BKN140 BKN220 16/M07 A3035 RMK AO2 SLP248 T01561067 53001
KAPA 161353Z 11006KT 10SM BKN140 BKN220 08/M08 A3034 RMK AO2 SLP254 T00831078
KAPA 161253Z 19009KT 10SM BKN200 08/M09 A3033 RMK AO2 SLP250 T00831089
KAPA 161153Z 15004KT 10SM SCT220 05/M06 A3034 RMK AO2 SLP254 T00501061 10078 20022 56008
KAPA 161053Z COR 15005KT 10SM FEW220 03/M06 A3034 RMK AO2 SLP254 T00281056
KAPA 160953Z COR 16005KT 10SM CLR 06/M07 A3035 RMK AO2 SLP248 T00611072
KAPA 160853Z 16006KT 10SM CLR 06/M06 A3037 RMK AO2 SLP256 60000 T00561061 58014
KAPA 160753Z COR 18005KT 10SM CLR 04/M06 A3039 RMK AO2 SLP269 P0000 T00441056
KAPA 160653Z COR 17006KT 10SM CLR 03/M04 A3040 RMK AO2 SLP278 P0000 T00331039 401891028
KAPA 160553Z 16004KT 10SM CLR 03/M03 A3042 RMK AO2 SLP285 T00331033 10156 20022 58000
KAPA 160453Z 18004KT 10SM CLR 06/M04 A3043 RMK AO2 SLP281 T00611039
KAPA 160353Z 20007KT 10SM CLR 06/M02 A3043 RMK AO2 SLP295 T00561022
KAPA 160253Z 25005KT 10SM CLR 08/M04 A3042 RMK AO2 SLP291 T00831039 53008
KAPA 160153Z 28008KT 10SM CLR 11/M06 A3041 RMK AO2 SLP298 T01111056
KAPA 160053Z 32005KT 10SM CLR 13/M07 A3040 RMK AO2 SLP300 T01281067
KAPA 152353Z 34008KT 10SM CLR 16/M06 A3039 RMK AO2 SLP283 T01561056 10189 20156 55001
KAPA 152253Z 01008KT 10SM CLR 18/M08 A3039 RMK AO2 SLP278 T01831078
KAPA 152153Z 01006KT 10SM CLR 19/M07 A3039 RMK AO2 SLP271 T01891072
KAPA 152053Z 04005KT 10SM CLR 18/M08 A3040 RMK AO2 SLP276 T01831083 56015
KAPA 151953Z 06005KT 10SM CLR 18/M11 A3041 RMK AO2 SLP282 T01781106
KAPA 151853Z 04005KT 10SM CLR 17/M12 A3043 RMK AO2 SLP291 T01671117
KAPA 151753Z 05007KT 10SM CLR 16/M09 A3045 RMK AO2 SLP299 T01561094 10156 21028 53003
KAPA 151653Z 36005KT 10SM CLR 16/M11 A3044 RMK AO2 SLP298 T01561111
KAPA 151553Z 13004KT 10SM CLR 11/M05 A3044 RMK AO2 SLP307 T01061050
KAPA 151453Z 16005KT 10SM CLR 08/M09 A3043 RMK AO2 SLP311 T00781089 53014
KAPA 151353Z 18006KT 10SM CLR 01/M09 A3041 RMK AO2 SLP309 T00111089